Lexington, OK

3:10 AM CST on December 18, 2014 (GMT -0600)
Home | Change Station
CLOSE
Current Station
Personal Weather Station
Location: Noble, OK
Elevation: 1122 ft
Nearby Weather Stations

Elev 1122 ft 35.11 °N, 97.38 °W | Updated 4 minutes ago

Fog
Fog
38.1 °F
Feels Like 38 °F
N
2.0
Wind Variable Wind from ESE
Gusts 8.0 mph

Today
High -- | Low -- °F
--% Chance of Precip.
Yesterday
High -- | Low -- °F
Precip. -- in
7:31 AM 5:20 PM
Waning Crescent, 16% visible
Pressure 30.11 in
Visibility 2.5 miles
Clouds Overcast 200 ft
Windchill 38 °F
Dew Point 38 °F
Humidity 98%
Rainfall 0.00 in
Snow Depth Not available.
UV 0 out of 12
Pollen 5.70 out of 12
Air Quality Not available.
Flu Activity Not available.
METAR KOUN 180855Z AUTO 15006KT 2 1/2SM BR OVC002 02/02 A3011 RMK AO2

More Conditions Fewer Conditions

Pressure 30.11 in
Visibility 2.5 miles
Clouds Overcast 200 ft
Windchill 38 °F
Dew Point 38 °F
Humidity 98%
Rainfall 0.00 in
Snow Depth Not available.
UV 0 out of 12
Pollen 5.70 out of 12
Air Quality Not available.
Flu Activity Not available.
METAR KOUN 180855Z AUTO 15006KT 2 1/2SM BR OVC002 02/02 A3011 RMK AO2

More Conditions Fewer Conditions

10-Day Weather Forecast

Almanac

Astronomy

Dec. 18, 2014 Rise Set
Actual Time
Civil Twilight
Nautical Twilight
Astronomical Twilight
Moon
Length of Visible Light
Length of Day
Tomorrow will be .
, % of the Moon is Illuminated

Today's Extremes

State Highs State Lows

Community

WunderPhotos

Upload Photos

1,778,907 photos uploaded!

WunderBlogs® & News

Nearby

Air Quality

  Air Quality AQ Index Pollutant
Not available.

Snow Depth

Station Depth Elevation

Earthquake Activity

City Distance Mag. Time & Date
Minimum magnitude displayed is 2.5.

Coastal Water Temperatures

Place Temperature

Nearby Weather Stations